Time;durP1;ratioP1;P1;durP2;ratioP2;P2;SDS_P1;SDS_P2;PMS_P1;PMS_P2;Temp;Humidity;BMP_temperature;BMP_pressure;BME280_temperature;BME280_humidity;BME280_pressure;Samples;Min_cycle;Max_cycle;Signal;HPM_P1;HPM_P2
2021/08/11 00:04:42;;;;;;;10.48;6.70;;;;;;;13.44;78.61;100681.06;10269041;28;20271;-74
2021/08/11 00:09:45;;;;;;;11.48;6.90;;;;;;;13.43;78.59;100682.88;10269399;28;20193;-74
2021/08/11 00:14:49;;;;;;;11.55;7.15;;;;;;;13.51;78.74;100673.25;10268575;28;20636;-75
2021/08/11 00:19:52;;;;;;;11.70;7.40;;;;;;;13.51;78.75;100673.25;10268979;28;20205;-74
2021/08/11 00:24:54;;;;;;;14.98;8.02;;;;;;;13.43;78.46;100677.47;10268806;28;20221;-74
2021/08/11 00:30:00;;;;;;;12.65;7.85;;;;;;;13.36;78.65;100675.44;10268568;28;20205;-74
2021/08/11 00:35:04;;;;;;;13.00;8.27;;;;;;;13.31;78.83;100675.84;10267041;28;20232;-74
2021/08/11 00:40:11;;;;;;;14.77;8.20;;;;;;;13.34;79.10;100674.72;10266853;28;20668;-74
2021/08/11 00:45:16;;;;;;;14.10;8.75;;;;;;;13.36;78.78;100676.28;10266612;28;20231;-74
2021/08/11 00:50:20;;;;;;;14.90;7.95;;;;;;;13.35;78.70;100682.66;10267878;28;20189;-71
2021/08/11 00:55:24;;;;;;;16.67;9.57;;;;;;;13.31;78.91;100680.38;10265735;28;20213;-72
2021/08/11 01:00:31;;;;;;;14.30;9.43;;;;;;;13.28;78.56;100692.31;10265994;28;20237;-72
2021/08/11 01:05:34;;;;;;;15.55;8.73;;;;;;;13.21;78.73;100691.97;10310644;23;20231;-75
2021/08/11 01:10:38;;;;;;;15.00;9.02;;;;;;;13.14;78.93;100682.72;10291337;28;20205;-75
2021/08/11 01:15:45;;;;;;;17.60;8.98;;;;;;;13.12;79.03;100690.06;10275566;28;20275;-75
2021/08/11 01:20:57;;;;;;;15.45;9.23;;;;;;;13.05;79.12;100689.78;10276583;28;20284;-74
2021/08/11 01:26:07;;;;;;;15.05;9.13;;;;;;;13.04;79.42;100688.03;10292581;28;20216;-77
2021/08/11 01:31:16;;;;;;;14.98;8.52;;;;;;;13.00;79.12;100689.31;10291881;28;20189;-76
2021/08/11 01:36:36;;;;;;;16.83;8.98;;;;;;;12.91;79.24;100692.78;10292348;28;20235;-75
2021/08/11 01:41:46;;;;;;;14.93;9.02;;;;;;;12.86;79.11;100688.78;10275567;28;20206;-75
2021/08/11 01:46:50;;;;;;;13.30;8.23;;;;;;;12.81;78.89;100699.97;10274999;28;20316;-75
2021/08/11 01:51:56;;;;;;;15.50;8.73;;;;;;;12.73;78.91;100694.38;10275838;28;20219;-75
2021/08/11 01:57:00;;;;;;;15.38;8.25;;;;;;;12.65;78.91;100700.41;10275495;28;20231;-75
2021/08/11 02:02:03;;;;;;;17.83;10.68;;;;;;;12.64;78.94;100704.09;10291302;28;20530;-75
2021/08/11 02:07:08;;;;;;;15.15;8.27;;;;;;;12.65;79.10;100704.97;10291260;28;20229;-76
2021/08/11 02:12:12;;;;;;;15.30;9.00;;;;;;;12.63;79.41;100706.91;10275312;28;20220;-76
2021/08/11 02:17:19;;;;;;;17.30;9.57;;;;;;;12.66;79.24;100704.81;10275185;28;20236;-76
2021/08/11 02:22:25;;;;;;;14.52;8.95;;;;;;;12.70;78.86;100702.69;10293401;28;20197;-76
2021/08/11 02:27:35;;;;;;;19.17;9.38;;;;;;;12.71;78.95;100701.75;10273751;28;20235;-76
2021/08/11 02:32:42;;;;;;;16.25;9.65;;;;;;;12.71;78.85;100689.09;10270298;28;20212;-76
2021/08/11 02:37:57;;;;;;;19.95;10.45;;;;;;;12.71;78.74;100694.50;10285256;28;20221;-75
2021/08/11 02:43:04;;;;;;;20.23;10.50;;;;;;;12.70;78.92;100694.63;10284886;28;20200;-75
2021/08/11 02:48:11;;;;;;;18.15;10.38;;;;;;;12.68;78.99;100697.47;10268296;28;20220;-77
2021/08/11 02:53:20;;;;;;;16.88;9.48;;;;;;;12.65;79.32;100703.13;10284527;28;20252;-76
2021/08/11 02:58:24;;;;;;;19.08;10.13;;;;;;;12.59;79.25;100700.94;10267850;28;20216;-74
2021/08/11 03:03:28;;;;;;;15.40;9.65;;;;;;;12.56;79.22;100699.38;10267946;28;20228;-74
2021/08/11 03:08:34;;;;;;;19.25;9.32;;;;;;;12.53;79.33;100690.66;10283425;28;20205;-75
2021/08/11 03:13:41;;;;;;;21.00;10.60;;;;;;;12.47;79.36;100692.03;10284268;28;20236;-75
2021/08/11 03:18:45;;;;;;;14.65;9.32;;;;;;;12.42;79.30;100696.09;10283989;28;20307;-75
2021/08/11 03:23:49;;;;;;;19.35;10.45;;;;;;;12.30;79.33;100689.91;10283804;28;20723;-76
2021/08/11 03:28:59;;;;;;;14.63;9.27;;;;;;;12.29;79.40;100697.16;10283624;28;20220;-76
2021/08/11 03:34:04;;;;;;;18.48;9.93;;;;;;;12.28;79.42;100690.03;10285276;28;20225;-76
2021/08/11 03:39:10;;;;;;;16.73;9.88;;;;;;;12.36;79.29;100695.63;10273675;28;20224;-75
2021/08/11 03:44:13;;;;;;;18.48;10.25;;;;;;;12.43;79.42;100696.00;10290051;28;20271;-75
2021/08/11 03:49:19;;;;;;;17.85;10.43;;;;;;;12.55;79.13;100697.63;10273601;28;20224;-75
2021/08/11 03:54:25;;;;;;;19.25;11.40;;;;;;;12.70;79.03;100705.41;10273958;28;20785;-75
2021/08/11 03:59:29;;;;;;;21.70;11.90;;;;;;;12.84;78.85;100707.78;10275252;28;20659;-75
2021/08/11 04:04:33;;;;;;;20.55;10.90;;;;;;;12.99;78.83;100714.56;10287297;28;20253;-76
2021/08/11 04:09:38;;;;;;;21.10;12.52;;;;;;;13.12;78.67;100714.34;10273064;28;20709;-77
2021/08/11 04:14:40;;;;;;;34.03;17.30;;;;;;;13.24;79.23;100717.81;10273141;28;20343;-77
2021/08/11 04:19:43;;;;;;;40.92;19.42;;;;;;;13.37;79.58;100720.34;10279540;28;20220;-76
2021/08/11 04:24:47;;;;;;;48.60;23.15;;;;;;;13.43;80.65;100728.75;10277802;28;20220;-76
2021/08/11 04:29:50;;;;;;;56.25;25.75;;;;;;;13.49;81.53;100732.75;10276596;28;20216;-75
2021/08/11 04:34:53;;;;;;;61.88;25.80;;;;;;;13.47;82.90;100737.44;10275346;28;20213;-75
2021/08/11 04:39:57;;;;;;;63.30;29.35;;;;;;;13.63;83.09;100734.22;10275681;28;20256;-76
2021/08/11 04:45:00;;;;;;;59.90;27.83;;;;;;;13.78;82.99;100737.44;10274179;28;20448;-76
2021/08/11 04:50:03;;;;;;;54.00;25.10;;;;;;;13.89;82.69;100742.72;10274668;28;20193;-76
2021/08/11 04:55:08;;;;;;;50.88;26.17;;;;;;;14.01;82.46;100740.75;10274322;28;20327;-75
2021/08/11 05:00:12;;;;;;;40.60;20.10;;;;;;;14.16;81.81;100744.78;10274174;28;20713;-75
2021/08/11 05:05:15;;;;;;;29.38;15.25;;;;;;;14.15;81.17;100740.34;10271733;28;20256;-75
2021/08/11 05:10:20;;;;;;;31.83;16.05;;;;;;;14.14;80.34;100747.63;10272513;28;20197;-75
2021/08/11 05:15:23;;;;;;;33.35;17.08;;;;;;;14.24;79.61;100747.66;10270892;28;20225;-75
2021/08/11 05:20:26;;;;;;;32.05;16.25;;;;;;;14.37;79.61;100750.94;10271686;28;20220;-77
2021/08/11 05:25:31;;;;;;;34.20;16.90;;;;;;;14.43;78.89;100741.44;10271054;28;20259;-75
2021/08/11 05:30:34;;;;;;;37.80;17.65;;;;;;;14.60;78.93;100753.41;10271980;28;20196;-75
2021/08/11 05:35:36;;;;;;;38.85;18.70;;;;;;;14.70;78.58;100754.28;10270898;28;20655;-75
2021/08/11 05:40:41;;;;;;;34.30;18.52;;;;;;;14.75;78.46;100743.84;10269622;28;20273;-76
2021/08/11 05:45:43;;;;;;;38.55;18.67;;;;;;;14.86;77.92;100755.53;10268870;28;20248;-76
2021/08/11 05:50:46;;;;;;;40.95;20.13;;;;;;;14.99;78.24;100766.91;10270224;28;20200;-76
2021/08/11 05:55:51;;;;;;;43.58;21.27;;;;;;;15.11;77.68;100770.31;10267503;28;20308;-76
2021/08/11 06:00:54;;;;;;;47.83;22.60;;;;;;;15.18;77.77;100777.72;10268103;28;20311;-75
2021/08/11 06:05:57;;;;;;;40.25;18.10;;;;;;;15.13;77.43;100777.28;10266939;28;20713;-75
2021/08/11 06:11:01;;;;;;;56.08;25.60;;;;;;;14.91;78.70;100788.41;10283648;28;20201;-76
2021/08/11 06:16:05;;;;;;;50.55;21.90;;;;;;;14.95;79.13;100795.25;10268514;28;20209;-75
2021/08/11 06:21:08;;;;;;;57.83;26.02;;;;;;;15.03;79.26;100803.53;10271535;28;20216;-77
2021/08/11 06:26:12;;;;;;;54.35;25.02;;;;;;;15.10;78.71;100796.50;10270364;28;20763;-76
2021/08/11 06:31:17;;;;;;;59.08;26.48;;;;;;;15.11;79.17;100800.94;10266877;28;20189;-75
2021/08/11 06:36:20;;;;;;;45.33;21.17;;;;;;;15.29;78.55;100811.88;10266642;28;20212;-75
2021/08/11 06:41:25;;;;;;;54.85;26.38;;;;;;;15.17;78.83;100811.19;10265454;28;20768;-76
2021/08/11 06:46:40;;;;;;;59.45;27.88;;;;;;;15.16;78.98;100819.44;10280840;28;20660;-76
2021/08/11 06:51:44;;;;;;;55.78;24.13;;;;;;;15.04;79.94;100822.28;10281797;28;20232;-76
2021/08/11 06:56:48;;;;;;;59.58;25.75;;;;;;;14.94;80.29;100840.38;10265455;28;20701;-75
2021/08/11 07:01:51;;;;;;;55.65;27.00;;;;;;;14.97;79.73;100847.34;10266002;28;20711;-75
2021/08/11 07:06:55;;;;;;;59.33;24.33;;;;;;;15.19;78.99;100840.78;10265938;28;20229;-75
2021/08/11 07:12:02;;;;;;;56.58;25.02;;;;;;;15.16;78.60;100846.50;10272751;28;20276;-75
2021/08/11 07:17:05;;;;;;;52.58;24.08;;;;;;;15.10;79.41;100849.78;10272100;28;20217;-75
2021/08/11 07:22:08;;;;;;;47.05;23.65;;;;;;;15.29;79.11;100848.91;10272816;28;20220;-75
2021/08/11 07:27:12;;;;;;;59.50;24.95;;;;;;;15.45;78.41;100854.63;10271968;28;20263;-75
2021/08/11 07:32:15;;;;;;;51.20;25.55;;;;;;;15.36;78.44;100850.06;10271815;28;20216;-75
2021/08/11 07:37:18;;;;;;;48.42;23.05;;;;;;;15.49;77.22;100847.91;10271706;28;20212;-75
2021/08/11 07:42:22;;;;;;;47.80;23.13;;;;;;;15.76;77.14;100851.72;10271518;28;20225;-75
2021/08/11 07:47:25;;;;;;;55.75;23.65;;;;;;;16.21;75.09;100850.97;10271039;28;20271;-75
2021/08/11 07:52:28;;;;;;;50.15;24.40;;;;;;;16.54;74.28;100865.84;10271357;28;20321;-75
2021/08/11 07:57:32;;;;;;;48.08;23.35;;;;;;;16.51;74.75;100875.13;10270573;28;20217;-75
2021/08/11 08:02:35;;;;;;;49.67;24.23;;;;;;;16.38;74.37;100863.78;10271138;28;20228;-76
2021/08/11 08:07:38;;;;;;;44.47;23.65;;;;;;;17.27;71.17;100865.72;10285492;28;20239;-75
2021/08/11 08:12:44;;;;;;;49.42;24.35;;;;;;;17.54;69.75;100872.91;10272615;28;20252;-75
2021/08/11 08:17:47;;;;;;;43.97;21.73;;;;;;;17.51;67.51;100875.94;10270554;28;20216;-75
2021/08/11 08:22:51;;;;;;;41.55;20.90;;;;;;;17.73;68.49;100865.59;10270560;28;20240;-75
2021/08/11 08:27:55;;;;;;;40.65;21.52;;;;;;;18.90;64.08;100868.53;10269985;28;20223;-75
2021/08/11 08:33:20;;;;;;;41.92;22.00;;;;;;;19.38;63.06;100861.41;10270181;28;20279;-76
2021/08/11 08:38:23;;;;;;;38.33;20.92;;;;;;;19.91;60.96;100859.16;10269676;28;20409;-75
2021/08/11 08:43:45;;;;;;;32.92;18.60;;;;;;;19.58;61.00;100870.16;10270226;28;20283;-76
2021/08/11 08:48:48;;;;;;;27.35;16.30;;;;;;;19.26;60.47;100879.13;10269509;28;20251;-74
2021/08/11 08:53:51;;;;;;;30.80;17.17;;;;;;;19.79;60.27;100877.75;10269780;28;20212;-76
2021/08/11 08:58:55;;;;;;;28.80;16.38;;;;;;;20.01;59.31;100870.72;10270258;28;20193;-73
2021/08/11 09:03:58;;;;;;;27.67;16.58;;;;;;;19.52;60.20;100878.94;10269559;28;20232;-77
2021/08/11 09:09:05;;;;;;;27.45;15.68;;;;;;;19.28;62.13;100877.09;10272317;28;20290;-74
2021/08/11 09:14:24;;;;;;;31.55;15.27;;;;;;;20.03;59.86;100874.13;10271388;28;20213;-74
2021/08/11 09:19:40;;;;;;;29.52;16.02;;;;;;;20.69;56.36;100882.09;10284578;28;20271;-75
2021/08/11 09:24:44;;;;;;;31.58;16.13;;;;;;;21.00;56.21;100871.97;10268541;28;20591;-75
2021/08/11 09:30:13;;;;;;;22.88;14.32;;;;;;;21.09;56.70;100880.16;10272224;28;20196;-74
2021/08/11 09:35:17;;;;;;;23.85;14.88;;;;;;;21.52;54.16;100872.31;10275149;28;20575;-75
2021/08/11 09:40:23;;;;;;;27.70;14.50;;;;;;;21.22;55.12;100872.22;10273657;28;20219;-74
2021/08/11 09:45:42;;;;;;;28.55;15.50;;;;;;;21.59;53.88;100865.91;10270929;28;20215;-75
2021/08/11 09:50:47;;;;;;;21.58;12.77;;;;;;;22.23;52.55;100870.91;10270706;28;20235;-75
2021/08/11 09:55:57;;;;;;;22.15;12.82;;;;;;;22.09;52.46;100875.34;10285486;28;20220;-75
2021/08/11 10:01:01;;;;;;;22.33;13.52;;;;;;;21.95;53.82;100884.41;10284671;28;20221;-75
2021/08/11 10:06:04;;;;;;;22.92;13.32;;;;;;;21.64;53.61;100887.25;10270607;28;20223;-75
2021/08/11 10:11:07;;;;;;;22.17;13.73;;;;;;;20.94;55.06;100886.38;10272550;28;20205;-74
2021/08/11 10:16:12;;;;;;;21.83;11.30;;;;;;;20.16;55.69;100887.22;10274040;28;20488;-74
2021/08/11 10:21:16;;;;;;;22.05;11.77;;;;;;;21.65;52.51;100897.97;10272210;28;20217;-75
2021/08/11 10:26:18;;;;;;;20.77;12.23;;;;;;;20.76;55.16;100886.66;10271345;28;20220;-73
2021/08/11 10:31:23;;;;;;;17.88;9.75;;;;;;;20.71;53.20;100886.34;10270913;28;20200;-75
2021/08/11 10:36:28;;;;;;;19.35;13.02;;;;;;;21.32;53.26;100889.22;10279560;28;20590;-75
2021/08/11 10:41:32;;;;;;;23.05;13.02;;;;;;;20.75;54.85;100886.81;10274510;28;20212;-74
2021/08/11 10:46:40;;;;;;;23.05;12.75;;;;;;;20.22;56.04;100891.13;10278359;28;20286;-74
2021/08/11 10:51:46;;;;;;;18.83;11.07;;;;;;;20.75;55.46;100893.13;10280326;28;20212;-75
2021/08/11 10:56:52;;;;;;;17.05;10.57;;;;;;;21.28;53.82;100898.78;10279270;28;20225;-75
2021/08/11 11:01:56;;;;;;;18.95;8.93;;;;;;;21.57;51.35;100883.53;10275866;28;20224;-75
2021/08/11 11:07:16;;;;;;;16.30;10.18;;;;;;;21.26;52.89;100895.41;10277675;28;20239;-74
2021/08/11 11:12:38;;;;;;;17.73;9.90;;;;;;;22.27;50.29;100891.38;10291575;28;20243;-76
2021/08/11 11:18:09;;;;;;;18.17;10.35;;;;;;;22.40;49.20;100882.50;10291302;28;20224;-74
2021/08/11 11:23:30;;;;;;;14.00;9.25;;;;;;;22.21;49.55;100891.28;10275370;28;20224;-74
2021/08/11 11:28:54;;;;;;;19.63;8.90;;;;;;;22.49;48.06;100897.81;10275125;28;20255;-74
2021/08/11 11:34:24;;;;;;;12.55;6.88;;;;;;;23.00;45.44;100894.19;10276432;28;20661;-76
2021/08/11 11:39:28;;;;;;;17.70;8.48;;;;;;;23.50;44.80;100889.66;10272922;28;20266;-76
2021/08/11 11:44:44;;;;;;;12.23;9.07;;;;;;;24.20;42.87;100885.16;10288837;28;20800;-75
2021/08/11 11:50:26;;;;;;;13.32;8.55;;;;;;;24.31;43.25;100878.25;10273742;28;20197;-75
2021/08/11 11:55:31;;;;;;;12.15;8.73;;;;;;;24.65;44.68;100887.50;10287851;28;20255;-75
2021/08/11 12:00:34;;;;;;;13.00;9.90;;;;;;;25.85;39.85;100872.06;10274022;28;20224;-75
2021/08/11 12:05:47;;;;;;;13.40;9.02;;;;;;;24.06;43.72;100869.66;10274200;28;20260;-75
2021/08/11 12:10:51;;;;;;;11.38;7.63;;;;;;;27.06;37.63;100860.41;10293385;28;20216;-76
2021/08/11 12:15:55;;;;;;;9.93;7.57;;;;;;;27.75;36.46;100855.84;10275026;28;20221;-76
2021/08/11 12:21:02;;;;;;;12.35;8.13;;;;;;;26.48;38.79;100861.34;10275506;28;20276;-77
2021/08/11 12:26:07;;;;;;;11.15;9.00;;;;;;;24.58;42.20;100860.03;10274326;28;20224;-75
2021/08/11 12:31:12;;;;;;;11.23;8.82;;;;;;;25.81;39.75;100854.31;10274670;28;20224;-75
2021/08/11 12:36:20;;;;;;;11.25;8.15;;;;;;;27.42;36.67;100850.63;10272439;28;20232;-75
2021/08/11 12:41:25;;;;;;;9.35;7.32;;;;;;;27.15;36.88;100856.34;10286970;28;20244;-76
2021/08/11 12:46:39;;;;;;;8.98;7.13;;;;;;;26.97;36.67;100859.00;10290019;28;20227;-75
2021/08/11 12:51:43;;;;;;;7.20;6.18;;;;;;;27.04;36.13;100856.19;10274753;28;20200;-75
2021/08/11 12:56:57;;;;;;;9.07;6.60;;;;;;;26.22;36.83;100855.88;10286420;28;20221;-74
2021/08/11 13:02:00;;;;;;;8.35;6.25;;;;;;;27.77;34.74;100856.47;10271572;28;20756;-74
2021/08/11 13:07:07;;;;;;;9.05;6.55;;;;;;;27.28;34.91;100847.09;10276162;23;20232;-75
2021/08/11 13:12:12;;;;;;;7.18;6.13;;;;;;;27.88;34.84;100857.63;10270036;28;20720;-75
2021/08/11 13:17:18;;;;;;;7.68;5.70;;;;;;;27.39;35.59;100857.41;10268341;28;20224;-75
2021/08/11 13:22:24;;;;;;;8.32;6.30;;;;;;;25.26;39.02;100860.00;10269423;28;20718;-75
2021/08/11 13:27:27;;;;;;;7.78;6.97;;;;;;;24.12;40.63;100843.31;10268745;28;20220;-75
2021/08/11 13:32:31;;;;;;;6.45;5.68;;;;;;;25.88;38.27;100832.28;10269507;28;20185;-75
2021/08/11 13:37:35;;;;;;;8.45;6.00;;;;;;;29.17;33.73;100827.13;10268743;28;20205;-76
2021/08/11 13:42:38;;;;;;;8.05;5.82;;;;;;;28.54;32.97;100830.38;10271069;28;20554;-74
2021/08/11 13:47:44;;;;;;;9.30;7.00;;;;;;;27.16;35.36;100813.91;10269843;28;20681;-75
2021/08/11 13:52:50;;;;;;;8.38;6.60;;;;;;;26.66;35.41;100818.47;10270786;28;20196;-75
2021/08/11 13:57:54;;;;;;;7.53;6.50;;;;;;;26.57;35.72;100811.50;10270844;28;20220;-74
2021/08/11 14:02:57;;;;;;;6.85;6.03;;;;;;;28.86;32.28;100814.41;10269922;28;20226;-75
2021/08/11 14:08:02;;;;;;;6.43;5.82;;;;;;;28.08;33.53;100802.22;10270319;28;20315;-75
2021/08/11 14:13:05;;;;;;;6.97;6.03;;;;;;;28.62;32.99;100808.78;10270820;28;20193;-75
2021/08/11 14:18:08;;;;;;;9.50;6.18;;;;;;;29.26;31.44;100805.50;10268356;28;20244;-75
2021/08/11 14:23:12;;;;;;;7.32;6.10;;;;;;;28.76;33.10;100812.19;10269632;28;20228;-75
2021/08/11 14:28:15;;;;;;;6.55;5.80;;;;;;;28.24;34.14;100804.34;10269424;28;20260;-74
2021/08/11 14:33:18;;;;;;;7.22;6.18;;;;;;;28.49;31.67;100812.53;10269701;28;20572;-76
2021/08/11 14:38:22;;;;;;;7.15;5.93;;;;;;;28.92;33.31;100805.16;10268067;28;20256;-76
2021/08/11 14:43:25;;;;;;;8.35;6.93;;;;;;;30.21;30.49;100788.63;10268336;28;20775;-76
2021/08/11 14:48:28;;;;;;;8.13;6.35;;;;;;;30.86;30.89;100804.03;10268383;28;20744;-75
2021/08/11 14:53:33;;;;;;;7.93;6.10;;;;;;;29.01;31.17;100805.66;10268134;28;20589;-76
2021/08/11 14:58:36;;;;;;;9.88;5.75;;;;;;;29.23;30.59;100790.22;10266766;28;20223;-77
2021/08/11 15:03:41;;;;;;;7.13;5.63;;;;;;;27.61;34.57;100796.34;10266728;28;20574;-76
2021/08/11 15:08:45;;;;;;;8.05;5.57;;;;;;;29.59;31.97;100788.28;10266995;28;20201;-76
2021/08/11 15:13:48;;;;;;;8.38;5.65;;;;;;;31.18;30.53;100780.47;10266566;28;20196;-76
2021/08/11 15:18:51;;;;;;;7.82;5.50;;;;;;;30.03;29.30;100767.47;10266450;28;20205;-77
2021/08/11 15:23:56;;;;;;;9.82;5.53;;;;;;;27.80;32.25;100769.59;10266004;28;20208;-76
2021/08/11 15:28:58;;;;;;;5.18;4.45;;;;;;;27.89;31.61;100773.75;10267766;28;20197;-76
2021/08/11 15:34:01;;;;;;;6.47;4.38;;;;;;;28.42;29.98;100761.22;10273204;28;20208;-77
2021/08/11 15:39:07;;;;;;;6.80;5.43;;;;;;;29.22;29.68;100762.81;10272538;28;20208;-75
2021/08/11 15:44:09;;;;;;;4.80;4.40;;;;;;;29.71;30.45;100753.19;10272449;28;20225;-76
2021/08/11 15:49:12;;;;;;;7.45;4.97;;;;;;;30.50;29.24;100749.84;10271153;28;20669;-75
2021/08/11 15:54:16;;;;;;;5.63;4.70;;;;;;;30.32;28.99;100747.28;10273085;28;20209;-75
2021/08/11 15:59:19;;;;;;;5.85;5.10;;;;;;;30.15;30.16;100756.38;10273077;28;20724;-75
2021/08/11 16:04:22;;;;;;;6.50;5.72;;;;;;;30.57;29.21;100739.44;10272180;28;20279;-75
2021/08/11 16:09:26;;;;;;;6.63;5.47;;;;;;;30.40;28.46;100744.94;10272727;28;20248;-75
2021/08/11 16:14:29;;;;;;;5.28;4.63;;;;;;;28.38;30.84;100749.78;10272371;28;20212;-74
2021/08/11 16:19:32;;;;;;;5.15;4.45;;;;;;;27.87;31.06;100755.75;10271458;28;20204;-75
2021/08/11 16:24:36;;;;;;;6.15;4.88;;;;;;;28.18;30.59;100747.31;10271956;28;20280;-75
2021/08/11 16:29:39;;;;;;;6.07;4.82;;;;;;;28.68;29.49;100751.72;10272516;28;20251;-75
2021/08/11 16:34:42;;;;;;;7.63;4.97;;;;;;;28.90;30.13;100755.63;10270950;28;20209;-76
2021/08/11 16:39:46;;;;;;;7.65;5.72;;;;;;;27.78;30.67;100752.44;10273408;28;20223;-75
2021/08/11 16:44:49;;;;;;;7.60;5.20;;;;;;;27.35;32.05;100762.41;10270895;28;20255;-76
2021/08/11 16:49:52;;;;;;;6.85;5.18;;;;;;;28.38;32.09;100758.06;10268606;28;20315;-75
2021/08/11 16:54:56;;;;;;;8.73;5.18;;;;;;;29.21;31.01;100747.28;10269753;28;20205;-74
2021/08/11 16:59:59;;;;;;;11.00;5.13;;;;;;;29.28;30.71;100746.06;10266572;28;20205;-76
2021/08/11 17:05:02;;;;;;;6.25;5.30;;;;;;;30.34;30.36;100742.34;10265655;28;20727;-74
2021/08/11 17:10:07;;;;;;;7.32;4.82;;;;;;;30.31;29.73;100743.66;10264716;28;20667;-76
2021/08/11 17:15:11;;;;;;;6.78;5.07;;;;;;;31.26;29.16;100743.97;10260325;28;20618;-76
2021/08/11 17:20:16;;;;;;;9.32;5.55;;;;;;;33.71;25.39;100751.41;10239843;28;20232;-75
2021/08/11 17:25:20;;;;;;;6.35;5.53;;;;;;;33.72;24.73;100751.13;10225470;28;20289;-77
2021/08/11 17:30:23;;;;;;;7.35;5.38;;;;;;;33.60;24.98;100744.91;10227190;28;20232;-77
2021/08/11 17:35:26;;;;;;;8.23;5.70;;;;;;;30.16;28.31;100751.66;10227470;28;20244;-75
2021/08/11 17:40:30;;;;;;;7.18;5.63;;;;;;;28.36;31.08;100756.63;10229620;28;20319;-75
2021/08/11 17:45:33;;;;;;;7.38;6.47;;;;;;;28.20;32.62;100750.69;10231258;28;20294;-76
2021/08/11 17:50:36;;;;;;;7.30;5.57;;;;;;;28.84;33.12;100748.28;10231672;28;20263;-76
2021/08/11 17:55:40;;;;;;;6.65;5.05;;;;;;;28.92;33.57;100747.09;10227277;28;20366;-75
2021/08/11 18:00:43;;;;;;;6.53;4.70;;;;;;;26.75;36.52;100753.75;10231966;28;20744;-75
2021/08/11 18:05:46;;;;;;;9.32;6.40;;;;;;;24.97;39.51;100751.28;10227235;28;20282;-75
2021/08/11 18:10:50;;;;;;;9.15;6.65;;;;;;;24.35;41.35;100753.22;10230763;28;20228;-75
2021/08/11 18:15:53;;;;;;;8.60;6.90;;;;;;;23.59;43.69;100758.78;10226370;28;20236;-75
2021/08/11 18:20:56;;;;;;;8.55;6.57;;;;;;;23.03;44.71;100751.34;10225186;28;20709;-74
2021/08/11 18:26:00;;;;;;;8.85;6.68;;;;;;;22.55;45.96;100759.34;10225580;28;20323;-74
2021/08/11 18:31:03;;;;;;;8.77;6.28;;;;;;;22.14;46.88;100757.16;10229594;28;20323;-74
2021/08/11 18:36:07;;;;;;;7.78;6.65;;;;;;;21.89;47.13;100751.16;10233257;28;20306;-74
2021/08/11 18:41:11;;;;;;;7.13;5.63;;;;;;;21.79;47.52;100756.06;10229569;28;20383;-74
2021/08/11 18:46:15;;;;;;;6.85;5.60;;;;;;;21.63;47.91;100766.09;10228245;28;20739;-74
2021/08/11 18:51:18;;;;;;;8.60;6.35;;;;;;;21.26;49.25;100775.22;10224577;28;20243;-75
2021/08/11 18:56:22;;;;;;;10.48;6.90;;;;;;;20.98;48.77;100777.63;10222838;28;20255;-75
2021/08/11 19:01:25;;;;;;;9.23;6.50;;;;;;;20.83;48.55;100780.31;10229547;28;20286;-75
2021/08/11 19:06:28;;;;;;;8.10;6.28;;;;;;;20.68;48.35;100774.81;10235165;28;20370;-75
2021/08/11 19:11:32;;;;;;;9.48;6.90;;;;;;;20.55;48.77;100777.28;10235765;28;20350;-75
2021/08/11 19:16:36;;;;;;;10.20;6.57;;;;;;;20.35;49.35;100785.06;10234143;28;20307;-75
2021/08/11 19:21:42;;;;;;;8.95;6.32;;;;;;;20.34;48.98;100789.66;10225149;28;20236;-74
2021/08/11 19:26:46;;;;;;;8.35;6.38;;;;;;;20.22;49.61;100792.94;10224053;28;26838;-75
2021/08/11 19:31:49;;;;;;;11.32;6.75;;;;;;;20.10;49.67;100790.63;10227147;28;20287;-75
2021/08/11 19:36:52;;;;;;;9.43;6.70;;;;;;;20.00;50.04;100794.56;10224624;28;20717;-75
2021/08/11 19:41:56;;;;;;;9.63;6.75;;;;;;;19.91;50.50;100793.72;10226675;28;20985;-74
2021/08/11 19:46:59;;;;;;;10.73;7.05;;;;;;;19.80;51.26;100802.28;10226103;28;20244;-75
2021/08/11 19:52:02;;;;;;;10.48;7.03;;;;;;;19.62;52.24;100802.50;10229418;28;20880;-74
2021/08/11 19:57:06;;;;;;;10.68;7.40;;;;;;;19.50;52.96;100804.72;10229887;28;20245;-74
2021/08/11 20:02:09;;;;;;;9.95;7.55;;;;;;;19.36;53.48;100810.84;10230583;28;20235;-75
2021/08/11 20:07:12;;;;;;;8.70;5.80;;;;;;;19.21;54.01;100811.56;10228713;28;20244;-75
2021/08/11 20:12:16;;;;;;;9.20;5.32;;;;;;;19.10;53.83;100814.63;10225927;28;20324;-74
2021/08/11 20:17:19;;;;;;;8.25;5.90;;;;;;;19.12;54.10;100815.31;10229034;28;20450;-74
2021/08/11 20:22:22;;;;;;;7.95;5.95;;;;;;;19.14;54.17;100817.84;10229586;28;20240;-75
2021/08/11 20:27:26;;;;;;;8.88;5.63;;;;;;;19.16;53.71;100822.09;10230471;28;20259;-76
2021/08/11 20:32:29;;;;;;;7.63;5.53;;;;;;;19.15;54.05;100822.28;10228349;28;20337;-75
2021/08/11 20:37:32;;;;;;;9.05;6.07;;;;;;;18.68;55.63;100831.91;10227894;28;20248;-74
2021/08/11 20:42:36;;;;;;;9.13;6.32;;;;;;;18.37;56.53;100839.78;10228080;28;20260;-75
2021/08/11 20:47:39;;;;;;;8.57;6.03;;;;;;;18.57;56.54;100837.66;10226885;28;20260;-75
2021/08/11 20:52:42;;;;;;;10.40;5.97;;;;;;;18.65;56.29;100850.41;10229317;28;20395;-74
2021/08/11 20:57:46;;;;;;;11.23;6.80;;;;;;;18.58;56.64;100850.22;10226224;28;20244;-75
2021/08/11 21:02:52;;;;;;;10.10;6.55;;;;;;;18.38;57.09;100851.53;10226896;28;20262;-75
2021/08/11 21:07:56;;;;;;;9.02;5.95;;;;;;;18.18;58.23;100845.47;10227697;28;20236;-75
2021/08/11 21:13:00;;;;;;;9.57;6.40;;;;;;;18.11;58.49;100850.72;10214498;28;20240;-75
2021/08/11 21:18:03;;;;;;;8.50;6.65;;;;;;;18.06;58.81;100843.03;10227576;28;20374;-75
2021/08/11 21:23:06;;;;;;;9.10;6.50;;;;;;;17.97;59.04;100844.03;10223332;28;20734;-75
2021/08/11 21:28:11;;;;;;;10.77;7.35;;;;;;;17.87;59.62;100844.09;10212937;28;20244;-75
2021/08/11 21:33:13;;;;;;;10.93;8.35;;;;;;;17.85;60.35;100845.28;10216873;28;20339;-74
2021/08/11 21:38:16;;;;;;;13.32;8.05;;;;;;;17.85;60.52;100845.28;10225953;28;20323;-74
2021/08/11 21:43:23;;;;;;;13.50;8.90;;;;;;;17.81;60.51;100842.03;10226519;28;20236;-75
2021/08/11 21:48:26;;;;;;;8.73;7.40;;;;;;;17.73;60.57;100852.84;10224686;28;20330;-74
2021/08/11 21:53:29;;;;;;;11.88;8.60;;;;;;;17.73;60.77;100852.00;10225733;28;20248;-74
2021/08/11 21:58:34;;;;;;;12.00;8.63;;;;;;;17.76;60.61;100852.53;10225398;28;20232;-74
2021/08/11 22:03:36;;;;;;;14.77;9.35;;;;;;;17.73;60.62;100850.13;10225095;28;20563;-74
2021/08/11 22:08:39;;;;;;;11.70;7.75;;;;;;;17.64;60.88;100846.50;10228814;28;20303;-74
2021/08/11 22:13:44;;;;;;;13.45;9.57;;;;;;;17.59;60.86;100854.28;10226009;28;20814;-75
2021/08/11 22:18:46;;;;;;;12.40;9.43;;;;;;;17.52;61.38;100855.06;10227229;28;21748;-74
2021/08/11 22:23:50;;;;;;;24.45;10.88;;;;;;;17.44;61.38;100853.13;10227790;28;20232;-74
2021/08/11 22:28:54;;;;;;;14.52;10.00;;;;;;;17.39;61.76;100850.06;10229395;28;20295;-74
2021/08/11 22:33:57;;;;;;;14.45;10.82;;;;;;;17.28;61.83;100851.16;10226605;28;20255;-74
2021/08/11 22:39:00;;;;;;;16.02;10.55;;;;;;;17.17;62.13;100856.84;10229991;28;20243;-74
2021/08/11 22:44:04;;;;;;;15.25;9.98;;;;;;;17.09;62.13;100857.59;10230412;28;21019;-75
2021/08/11 22:49:07;;;;;;;16.77;10.65;;;;;;;16.99;62.11;100849.50;10233141;28;20450;-74
2021/08/11 22:54:10;;;;;;;12.23;10.00;;;;;;;16.98;62.72;100852.38;10234107;28;20386;-74
2021/08/11 22:59:16;;;;;;;13.30;10.13;;;;;;;16.89;63.08;100854.16;10233251;28;20243;-74
2021/08/11 23:04:18;;;;;;;15.27;11.00;;;;;;;16.77;63.02;100852.69;10235600;28;20375;-74
2021/08/11 23:09:21;;;;;;;15.10;10.27;;;;;;;16.62;63.42;100856.91;10236779;28;20648;-74